createdAt,value
2018-07-08T00:01:32.025Z,2.87
2018-07-08T00:04:00.674Z,2.13
2018-07-08T00:06:28.889Z,2.50
2018-07-08T00:08:57.374Z,2.10
2018-07-08T00:11:25.641Z,2.50
2018-07-08T00:13:54.011Z,2.23
2018-07-08T00:16:22.390Z,2.40
2018-07-08T00:18:50.792Z,2.40
2018-07-08T00:21:19.117Z,2.67
2018-07-08T00:23:48.132Z,2.30
2018-07-08T00:26:16.533Z,2.43
2018-07-08T00:28:44.774Z,2.40
2018-07-08T00:31:13.264Z,2.23
2018-07-08T00:33:41.554Z,2.30
2018-07-08T00:36:10.040Z,2.33
2018-07-08T00:38:38.633Z,2.53
2018-07-08T00:41:07.160Z,2.20
2018-07-08T00:43:35.587Z,2.60
2018-07-08T00:46:03.930Z,2.90
2018-07-08T00:48:32.265Z,2.77
2018-07-08T00:51:00.685Z,2.87
2018-07-08T00:53:28.894Z,2.53
2018-07-08T00:55:57.241Z,2.70
2018-07-08T00:58:25.656Z,2.57
2018-07-08T01:00:54.050Z,2.33
2018-07-08T01:03:22.317Z,2.80
2018-07-08T01:05:50.635Z,2.40
2018-07-08T01:08:18.889Z,2.73
2018-07-08T01:10:47.411Z,2.63
2018-07-08T01:13:16.146Z,2.53
2018-07-08T01:15:44.388Z,2.53
2018-07-08T01:18:12.586Z,2.73
2018-07-08T01:20:40.981Z,3.10
2018-07-08T01:23:09.472Z,3.57
2018-07-08T01:25:49.029Z,3.53
2018-07-08T01:28:17.257Z,3.50
2018-07-08T01:30:45.634Z,2.77
2018-07-08T01:33:13.855Z,2.63
2018-07-08T01:35:42.726Z,2.87
2018-07-08T01:38:11.386Z,2.80
2018-07-08T01:40:39.783Z,2.80
2018-07-08T01:43:08.025Z,2.53
2018-07-08T01:45:36.253Z,2.93
2018-07-08T01:48:04.486Z,2.90
2018-07-08T01:50:33.641Z,2.60
2018-07-08T01:53:02.456Z,2.50
2018-07-08T01:55:30.668Z,3.00
2018-07-08T01:57:58.863Z,2.67
2018-07-08T02:00:27.098Z,2.43
2018-07-08T02:02:55.517Z,2.83
2018-07-08T02:05:23.791Z,2.50
2018-07-08T02:07:52.137Z,2.50
2018-07-08T02:10:20.339Z,2.47
2018-07-08T02:12:48.575Z,3.47
2018-07-08T02:15:18.676Z,2.53
2018-07-08T02:17:47.158Z,2.53
2018-07-08T02:20:15.466Z,2.50
2018-07-08T02:22:43.897Z,2.60
2018-07-08T02:25:12.123Z,2.50
2018-07-08T02:27:40.451Z,2.43
2018-07-08T02:30:08.960Z,2.60
2018-07-08T02:32:36.946Z,2.43
2018-07-08T02:35:05.145Z,2.60
2018-07-08T02:37:33.463Z,2.47
2018-07-08T02:40:02.142Z,2.67
2018-07-08T02:42:30.402Z,2.87
2018-07-08T02:45:00.770Z,2.70
2018-07-08T02:47:29.627Z,2.63
2018-07-08T02:49:57.835Z,2.87
2018-07-08T02:52:26.260Z,3.00
2018-07-08T02:54:54.526Z,3.00
2018-07-08T02:57:22.714Z,2.80
2018-07-08T02:59:50.910Z,2.53
2018-07-08T03:02:19.110Z,2.90
2018-07-08T03:05:10.857Z,3.13
2018-07-08T03:07:40.046Z,2.90
2018-07-08T03:10:08.572Z,2.37
2018-07-08T03:12:36.798Z,2.90
2018-07-08T03:15:05.078Z,2.87
2018-07-08T03:17:33.277Z,2.70
2018-07-08T03:20:02.183Z,2.87
2018-07-08T03:22:30.710Z,2.90
2018-07-08T03:24:58.878Z,3.13
2018-07-08T03:27:27.099Z,2.70
2018-07-08T03:29:55.433Z,2.90
2018-07-08T03:32:23.825Z,2.90
2018-07-08T03:34:52.038Z,2.67
2018-07-08T03:37:20.096Z,2.30
2018-07-08T03:39:48.326Z,2.60
2018-07-08T03:42:16.634Z,2.80
2018-07-08T03:44:44.851Z,2.60
2018-07-08T03:47:13.142Z,2.73
2018-07-08T03:49:41.337Z,3.00
2018-07-08T03:52:10.114Z,2.70
2018-07-08T03:54:38.924Z,2.90
2018-07-08T03:57:07.167Z,3.90
2018-07-08T03:59:35.414Z,3.27
2018-07-08T04:02:03.629Z,4.20
2018-07-08T04:04:32.117Z,3.77
2018-07-08T04:07:00.547Z,3.67
2018-07-08T04:09:28.713Z,3.67
2018-07-08T04:11:56.940Z,3.30
2018-07-08T04:14:26.129Z,3.40
2018-07-08T04:16:55.193Z,3.30
2018-07-08T04:19:23.391Z,3.57
2018-07-08T04:21:51.598Z,3.47
2018-07-08T04:24:19.806Z,2.73
2018-07-08T04:26:48.868Z,3.50
2018-07-08T04:29:17.780Z,3.07
2018-07-08T04:31:46.157Z,2.67
2018-07-08T04:34:14.376Z,3.37
2018-07-08T04:36:42.575Z,3.57
2018-07-08T04:39:10.792Z,2.93
2018-07-08T04:41:40.011Z,3.00
2018-07-08T04:44:08.402Z,3.13
2018-07-08T04:46:36.610Z,3.40
2018-07-08T04:49:04.918Z,3.20
2018-07-08T04:51:33.225Z,3.20
2018-07-08T04:54:01.525Z,3.30
2018-07-08T04:56:29.738Z,2.87
2018-07-08T04:58:58.112Z,3.43
2018-07-08T05:01:26.418Z,3.30
2018-07-08T05:03:55.331Z,3.90
2018-07-08T05:06:23.757Z,3.80
2018-07-08T05:08:51.994Z,3.40
2018-07-08T05:11:20.266Z,3.80
2018-07-08T05:13:48.449Z,3.60
2018-07-08T05:16:17.341Z,4.00
2018-07-08T05:18:45.854Z,3.90
2018-07-08T05:21:14.027Z,3.77
2018-07-08T05:23:42.197Z,3.90
2018-07-08T05:26:10.450Z,3.53
2018-07-08T05:28:39.397Z,3.47
2018-07-08T05:31:07.690Z,3.87
2018-07-08T05:33:35.893Z,2.80
2018-07-08T05:36:04.195Z,2.93
2018-07-08T05:38:32.742Z,2.70
2018-07-08T05:41:01.015Z,2.67
2018-07-08T05:43:29.586Z,2.70
2018-07-08T05:45:57.866Z,2.63
2018-07-08T05:48:26.046Z,2.63
2018-07-08T05:50:54.390Z,2.80
2018-07-08T05:53:22.602Z,2.57
2018-07-08T05:55:50.812Z,3.30
2018-07-08T05:58:19.018Z,2.80
2018-07-08T06:00:47.398Z,2.60
2018-07-08T06:03:15.649Z,2.93
2018-07-08T06:05:43.830Z,1.93
2018-07-08T06:08:12.056Z,2.77
2018-07-08T06:10:40.387Z,2.20
2018-07-08T06:13:08.976Z,2.57
2018-07-08T06:15:37.184Z,2.50
2018-07-08T06:18:05.406Z,2.80
2018-07-08T06:20:33.615Z,2.30
2018-07-08T06:23:02.763Z,2.53
2018-07-08T06:25:31.517Z,2.70
2018-07-08T06:27:59.726Z,3.10
2018-07-08T06:30:28.012Z,3.00
2018-07-08T06:32:56.229Z,3.03
2018-07-08T06:35:25.321Z,2.80
2018-07-08T06:37:54.074Z,2.47
2018-07-08T06:40:22.282Z,2.60
2018-07-08T06:42:50.475Z,2.70
2018-07-08T06:45:18.689Z,2.73
2018-07-08T06:47:46.968Z,2.33
2018-07-08T06:50:15.178Z,2.50
2018-07-08T06:52:43.430Z,2.87
2018-07-08T06:55:11.647Z,2.20
2018-07-08T06:57:40.601Z,2.77
2018-07-08T07:00:09.200Z,2.70
2018-07-08T07:02:37.416Z,2.50
2018-07-08T07:05:05.668Z,2.57
2018-07-08T07:07:33.917Z,2.87
2018-07-08T07:10:02.754Z,2.83
2018-07-08T07:12:31.111Z,2.10
2018-07-08T07:14:59.391Z,2.23
2018-07-08T07:17:27.664Z,2.57
2018-07-08T07:19:56.857Z,2.67
2018-07-08T07:22:25.238Z,2.93
2018-07-08T07:24:53.651Z,2.70
2018-07-08T07:27:21.902Z,2.27
2018-07-08T07:29:50.547Z,2.07
2018-07-08T07:32:18.750Z,2.33
2018-07-08T07:34:47.414Z,2.27
2018-07-08T07:37:15.668Z,2.67
2018-07-08T07:39:43.850Z,2.70
2018-07-08T07:42:12.070Z,2.60
2018-07-08T07:44:40.442Z,1.70
2018-07-08T07:47:09.205Z,2.30
2018-07-08T07:49:37.587Z,2.03
2018-07-08T07:52:05.849Z,2.37
2018-07-08T07:54:34.066Z,2.33
2018-07-08T07:57:02.766Z,2.23
2018-07-08T07:59:31.778Z,2.07
2018-07-08T08:02:00.055Z,2.00
2018-07-08T08:04:28.266Z,2.07
2018-07-08T08:06:56.472Z,1.87
2018-07-08T08:09:24.892Z,1.80
2018-07-08T08:11:53.191Z,2.13
2018-07-08T08:14:21.396Z,1.90
2018-07-08T08:16:49.626Z,1.90
2018-07-08T08:19:18.458Z,2.13
2018-07-08T08:21:47.408Z,1.80
2018-07-08T08:24:15.955Z,1.50
2018-07-08T08:26:44.356Z,1.90
2018-07-08T08:29:12.569Z,1.67
2018-07-08T08:31:41.038Z,1.67
2018-07-08T08:35:14.506Z,1.70
2018-07-08T08:37:43.969Z,1.60
2018-07-08T08:40:12.962Z,1.60
2018-07-08T08:42:41.298Z,1.43
2018-07-08T08:45:11.728Z,1.50
2018-07-08T08:47:40.805Z,1.57
2018-07-08T08:50:09.883Z,1.40
2018-07-08T08:52:38.515Z,1.60
2018-07-08T08:55:08.103Z,1.53
2018-07-08T08:57:36.461Z,1.40
2018-07-08T09:00:09.219Z,1.57
2018-07-08T09:02:37.446Z,1.27
2018-07-08T09:05:05.811Z,1.40
2018-07-08T09:07:34.061Z,1.00
2018-07-08T09:10:03.003Z,1.10
2018-07-08T09:12:32.130Z,1.50
2018-07-08T09:15:00.722Z,1.03
2018-07-08T09:17:29.011Z,1.10
2018-07-08T09:19:57.202Z,0.90
2018-07-08T09:22:25.565Z,0.80
2018-07-08T09:24:53.836Z,1.10
2018-07-08T09:27:22.082Z,1.10
2018-07-08T09:29:50.455Z,1.00
2018-07-08T09:32:18.804Z,0.80
2018-07-08T09:34:47.105Z,1.00
2018-07-08T09:37:15.449Z,0.90
2018-07-08T09:39:43.851Z,1.17
2018-07-08T09:42:12.315Z,1.00
2018-07-08T09:44:40.740Z,0.90
2018-07-08T09:47:09.390Z,1.00
2018-07-08T09:49:37.796Z,1.20
2018-07-08T09:52:07.001Z,1.17
2018-07-08T09:54:35.292Z,1.00
2018-07-08T09:57:03.581Z,0.80
2018-07-08T09:59:31.919Z,1.03
2018-07-08T10:02:00.243Z,0.87
2018-07-08T10:04:28.465Z,1.10
2018-07-08T10:06:56.730Z,0.97
2018-07-08T10:09:26.098Z,1.03
2018-07-08T10:11:54.524Z,0.90
2018-07-08T10:14:23.894Z,1.07
2018-07-08T10:16:52.131Z,0.93
2018-07-08T10:19:21.316Z,1.03
2018-07-08T10:21:49.336Z,1.00
2018-07-08T10:24:17.777Z,1.23
2018-07-08T10:26:55.553Z,1.00
2018-07-08T10:29:24.558Z,0.97
2018-07-08T10:31:53.198Z,0.90
2018-07-08T10:34:21.617Z,0.80
2018-07-08T10:36:50.089Z,0.90
2018-07-08T10:39:18.523Z,1.00
2018-07-08T10:41:47.959Z,1.10
2018-07-08T10:44:16.965Z,0.90
2018-07-08T10:46:45.193Z,1.10
2018-07-08T10:49:13.338Z,1.30
2018-07-08T10:51:41.650Z,1.00
2018-07-08T10:54:10.059Z,1.00
2018-07-08T10:56:38.297Z,0.80
2018-07-08T10:59:06.467Z,1.20
2018-07-08T11:01:34.692Z,0.67
2018-07-08T11:04:03.014Z,1.43
2018-07-08T11:06:31.250Z,1.10
2018-07-08T11:08:59.447Z,1.03
2018-07-08T11:11:27.929Z,0.60
2018-07-08T11:13:56.291Z,1.10
2018-07-08T11:16:24.686Z,0.83
2018-07-08T11:18:52.933Z,0.80
2018-07-08T11:21:21.115Z,1.03
2018-07-08T11:23:49.351Z,0.90
2018-07-08T11:26:17.658Z,0.67
2018-07-08T11:28:45.869Z,0.90
2018-07-08T11:31:14.131Z,0.80
2018-07-08T11:33:42.347Z,0.90
2018-07-08T11:36:10.683Z,0.80
2018-07-08T11:38:38.882Z,1.00
2018-07-08T11:41:07.093Z,1.07
2018-07-08T11:43:35.292Z,0.80
2018-07-08T11:46:03.533Z,0.87
2018-07-08T11:48:32.563Z,0.80
2018-07-08T11:51:00.816Z,0.90
2018-07-08T11:53:28.975Z,1.10
2018-07-08T11:55:57.209Z,1.00
2018-07-08T11:58:25.682Z,0.90
2018-07-08T12:00:54.101Z,1.10
2018-07-08T12:03:22.325Z,1.07
2018-07-08T12:05:50.601Z,1.43
2018-07-08T12:08:18.804Z,1.27
2018-07-08T12:10:47.038Z,1.30
2018-07-08T12:13:15.257Z,1.37
2018-07-08T12:15:43.452Z,1.00
2018-07-08T12:18:11.642Z,0.77
2018-07-08T12:20:40.477Z,0.87
2018-07-08T12:23:08.844Z,1.07
2018-07-08T12:25:37.066Z,1.40
2018-07-08T12:28:05.425Z,1.10
2018-07-08T12:30:33.729Z,0.90
2018-07-08T12:33:02.182Z,1.10
2018-07-08T12:35:30.416Z,1.00
2018-07-08T12:37:58.704Z,1.10
2018-07-08T12:40:26.898Z,0.90
2018-07-08T12:42:55.534Z,0.77
2018-07-08T12:45:24.337Z,0.70
2018-07-08T12:47:52.563Z,0.63
2018-07-08T12:50:20.881Z,0.80
2018-07-08T12:52:49.155Z,0.50
2018-07-08T12:55:17.638Z,0.80
2018-07-08T12:57:45.666Z,0.77
2018-07-08T13:00:13.854Z,0.60
2018-07-08T13:02:42.097Z,0.60
2018-07-08T13:05:10.597Z,0.67
2018-07-08T13:07:38.815Z,0.53
2018-07-08T13:10:07.037Z,1.00
2018-07-08T13:12:35.274Z,0.70
2018-07-08T13:15:04.612Z,0.90
2018-07-08T13:17:33.566Z,0.60
2018-07-08T13:20:01.885Z,0.57
2018-07-08T13:22:30.224Z,0.70
2018-07-08T13:24:58.546Z,0.67
2018-07-08T13:27:26.950Z,0.90
2018-07-08T13:29:55.891Z,0.80
2018-07-08T13:32:25.016Z,0.73
2018-07-08T13:34:53.162Z,0.70
2018-07-08T13:37:21.543Z,0.83
2018-07-08T13:39:49.735Z,0.53
2018-07-08T13:42:18.495Z,0.80
2018-07-08T13:44:46.890Z,1.07
2018-07-08T13:47:15.194Z,1.00
2018-07-08T13:49:43.350Z,0.90
2018-07-08T13:52:11.784Z,0.90
2018-07-08T13:54:40.096Z,0.70
2018-07-08T13:57:08.678Z,0.83
2018-07-08T13:59:36.962Z,0.80
2018-07-08T14:02:05.327Z,0.70
2018-07-08T14:04:34.255Z,1.17
2018-07-08T14:07:03.250Z,0.70
2018-07-08T14:09:32.415Z,0.80
2018-07-08T14:12:01.462Z,0.77
2018-07-08T14:14:29.722Z,1.10
2018-07-08T14:16:58.270Z,0.90
2018-07-08T14:19:26.490Z,0.87
2018-07-08T14:21:57.796Z,1.10
2018-07-08T14:24:26.494Z,1.00
2018-07-08T14:26:54.811Z,0.80
2018-07-08T14:29:23.093Z,0.93
2018-07-08T14:31:51.776Z,1.03
2018-07-08T14:34:19.977Z,0.97
2018-07-08T14:36:49.038Z,1.07
2018-07-08T14:39:17.842Z,1.00
2018-07-08T14:41:46.025Z,0.97
2018-07-08T14:44:14.338Z,1.20
2018-07-08T14:46:42.583Z,1.40
2018-07-08T14:49:16.493Z,1.00
2018-07-08T14:51:44.696Z,1.20
2018-07-08T14:54:12.928Z,1.00
2018-07-08T14:56:41.747Z,1.00
2018-07-08T14:59:10.517Z,1.03
2018-07-08T15:01:39.087Z,1.00
2018-07-08T15:04:07.363Z,0.90
2018-07-08T15:06:35.589Z,1.03
2018-07-08T15:09:07.621Z,0.73
2018-07-08T15:11:35.972Z,0.90
2018-07-08T15:14:04.281Z,1.00
2018-07-08T15:16:32.558Z,1.00
2018-07-08T15:19:00.930Z,1.17
2018-07-08T15:21:29.086Z,0.93
2018-07-08T15:23:57.299Z,1.13
2018-07-08T15:26:26.185Z,1.10
2018-07-08T15:28:55.603Z,1.10
2018-07-08T15:34:27.335Z,1.20
2018-07-08T15:36:56.222Z,0.83
2018-07-08T15:39:24.867Z,0.80
2018-07-08T15:41:53.324Z,1.20
2018-07-08T15:44:22.056Z,1.00
2018-07-08T15:46:50.333Z,1.17
2018-07-08T15:49:18.740Z,1.00
2018-07-08T15:51:46.986Z,1.20
2018-07-08T15:54:15.498Z,1.00
2018-07-08T15:56:43.831Z,0.93
2018-07-08T15:59:11.877Z,0.90
2018-07-08T16:01:40.298Z,1.03
2018-07-08T16:04:08.377Z,1.50
2018-07-08T16:06:36.734Z,1.00
2018-07-08T16:09:06.826Z,0.80
2018-07-08T16:11:35.316Z,1.10
2018-07-08T16:14:03.710Z,1.03
2018-07-08T16:16:32.037Z,1.00
2018-07-08T16:19:00.341Z,1.13
2018-07-08T16:21:28.963Z,1.20
2018-07-08T16:23:57.018Z,1.00
2018-07-08T16:26:25.331Z,1.00
2018-07-08T16:28:53.691Z,0.87
2018-07-08T16:31:21.947Z,1.03
2018-07-08T16:33:50.303Z,1.10
2018-07-08T16:36:18.738Z,1.63
2018-07-08T16:38:46.826Z,1.30
2018-07-08T16:41:15.103Z,1.10
2018-07-08T16:43:43.425Z,1.33
2018-07-08T16:46:12.373Z,1.20
2018-07-08T16:48:41.348Z,1.20
2018-07-08T16:51:09.855Z,1.00
2018-07-08T16:53:38.179Z,1.10
2018-07-08T16:56:06.475Z,0.90
2018-07-08T16:58:34.706Z,1.33
2018-07-08T17:01:03.402Z,1.20
2018-07-08T17:03:31.995Z,1.07
2018-07-08T17:06:00.259Z,1.13
2018-07-08T17:08:28.527Z,1.20
2018-07-08T17:10:56.799Z,1.03
2018-07-08T17:13:25.896Z,1.27
2018-07-08T17:15:54.844Z,1.40
2018-07-08T17:18:23.656Z,1.10
2018-07-08T17:20:51.936Z,1.10
2018-07-08T17:23:20.357Z,1.20
2018-07-08T17:25:48.982Z,1.10
2018-07-08T17:28:17.643Z,1.10
2018-07-08T17:30:46.096Z,1.30
2018-07-08T17:33:14.505Z,0.97
2018-07-08T17:35:43.021Z,1.03
2018-07-08T17:38:11.375Z,1.20
2018-07-08T17:40:39.860Z,1.10
2018-07-08T17:43:08.139Z,1.27
2018-07-08T17:45:36.421Z,1.23
2018-07-08T17:48:04.808Z,1.17
2018-07-08T17:50:33.244Z,1.40
2018-07-08T17:53:01.731Z,1.27
2018-07-08T17:55:31.187Z,1.30
2018-07-08T17:57:59.428Z,1.23
2018-07-08T18:00:28.056Z,1.40
2018-07-08T18:02:56.396Z,1.20
2018-07-08T18:05:25.244Z,0.90
2018-07-08T18:07:53.668Z,1.30
2018-07-08T18:10:21.894Z,1.53
2018-07-08T18:12:50.132Z,1.20
2018-07-08T18:15:18.491Z,1.27
2018-07-08T18:17:46.968Z,1.33
2018-07-08T18:20:15.209Z,1.60
2018-07-08T18:22:43.454Z,1.40
2018-07-08T18:25:11.699Z,1.67
2018-07-08T18:27:40.048Z,1.50
2018-07-08T18:30:08.275Z,1.80
2018-07-08T18:32:36.581Z,1.80
2018-07-08T18:35:04.902Z,1.60
2018-07-08T18:37:33.281Z,1.97
2018-07-08T18:40:19.960Z,1.73
2018-07-08T18:42:49.097Z,2.37
2018-07-08T18:45:17.480Z,2.43
2018-07-08T18:47:45.719Z,2.20
2018-07-08T18:50:13.939Z,2.03
2018-07-08T18:52:42.187Z,2.57
2018-07-08T18:55:11.089Z,2.33
2018-07-08T18:57:39.414Z,2.37
2018-07-08T19:00:07.706Z,2.40
2018-07-08T19:02:35.957Z,2.30
2018-07-08T19:05:04.201Z,2.20
2018-07-08T19:07:33.138Z,2.40
2018-07-08T19:10:02.014Z,2.60
2018-07-08T19:12:30.345Z,2.67
2018-07-08T19:14:58.936Z,2.37
2018-07-08T19:17:27.187Z,2.43
2018-07-08T19:19:55.454Z,2.43
2018-07-08T19:22:23.709Z,2.90
2018-07-08T19:24:51.945Z,2.50
2018-07-08T19:27:20.177Z,2.50
2018-07-08T19:29:48.547Z,2.70
2018-07-08T19:32:16.704Z,2.80
2018-07-08T19:34:44.931Z,2.67
2018-07-08T19:37:13.170Z,2.90
2018-07-08T19:39:41.474Z,3.20
2018-07-08T19:42:09.810Z,2.50
2018-07-08T19:44:38.083Z,2.67
2018-07-08T19:47:06.391Z,3.23
2018-07-08T19:49:34.629Z,2.77
2018-07-08T19:52:03.015Z,2.87
2018-07-08T19:54:31.257Z,2.70
2018-07-08T19:56:59.643Z,2.73
2018-07-08T19:59:27.961Z,2.63
2018-07-08T20:01:56.494Z,2.80
2018-07-08T20:04:24.895Z,2.83
2018-07-08T20:06:53.179Z,2.60
2018-07-08T20:09:21.626Z,2.50
2018-07-08T20:11:49.879Z,2.90
2018-07-08T20:14:18.309Z,2.90
2018-07-08T20:16:46.839Z,2.53
2018-07-08T20:19:15.074Z,2.83
2018-07-08T20:21:43.362Z,2.40
2018-07-08T20:24:11.718Z,2.80
2018-07-08T20:26:40.372Z,2.80
2018-07-08T20:29:08.764Z,2.80
2018-07-08T20:31:37.061Z,2.70
2018-07-08T20:34:05.487Z,3.43
2018-07-08T20:36:33.824Z,2.77
2018-07-08T20:39:02.115Z,2.53
2018-07-08T20:41:30.702Z,3.10
2018-07-08T20:43:58.982Z,2.57
2018-07-08T20:46:27.230Z,2.90
2018-07-08T20:48:55.531Z,2.93
2018-07-08T20:51:23.748Z,3.17
2018-07-08T20:53:52.451Z,2.90
2018-07-08T20:56:21.674Z,3.00
2018-07-08T20:58:50.241Z,2.87
2018-07-08T21:01:19.562Z,3.13
2018-07-08T21:03:47.997Z,2.80
2018-07-08T21:06:16.614Z,2.73
2018-07-08T21:08:44.908Z,2.93
2018-07-08T21:11:13.165Z,3.50
2018-07-08T21:13:41.583Z,2.83
2018-07-08T21:16:10.537Z,3.07
2018-07-08T21:18:39.183Z,3.30
2018-07-08T21:21:07.415Z,3.00
2018-07-08T21:23:35.674Z,2.90
2018-07-08T21:26:05.136Z,2.73
2018-07-08T21:28:33.491Z,2.83
2018-07-08T21:31:02.344Z,2.97
2018-07-08T21:33:30.638Z,3.37
2018-07-08T21:35:59.014Z,2.63
2018-07-08T21:38:27.989Z,3.13
2018-07-08T21:40:56.695Z,3.07
2018-07-08T21:43:25.345Z,3.10
2018-07-08T21:45:55.088Z,3.00
2018-07-08T21:48:23.834Z,2.60
2018-07-08T21:50:52.167Z,2.97
2018-07-08T21:53:20.765Z,3.03
2018-07-08T21:55:49.177Z,2.87
2018-07-08T21:58:17.568Z,3.00
2018-07-08T22:00:56.903Z,3.20
2018-07-08T22:03:25.194Z,2.80
2018-07-08T22:05:53.445Z,3.20
2018-07-08T22:08:25.896Z,3.00
2018-07-08T22:10:54.413Z,3.20
2018-07-08T22:13:22.786Z,3.00
2018-07-08T22:15:51.049Z,3.50
2018-07-08T22:18:19.403Z,4.53
2018-07-08T22:20:47.647Z,4.63
2018-07-08T22:23:15.990Z,2.80
2018-07-08T22:25:44.217Z,2.70
2018-07-08T22:28:12.679Z,2.70
2018-07-08T22:30:41.642Z,3.30
2018-07-08T22:33:10.143Z,3.40
2018-07-08T22:35:38.688Z,3.00
2018-07-08T22:38:07.574Z,3.00
2018-07-08T22:40:35.987Z,2.87
2018-07-08T22:43:04.389Z,3.30
2018-07-08T22:45:32.926Z,3.00
2018-07-08T22:48:01.256Z,2.90
2018-07-08T22:50:29.865Z,3.30
2018-07-08T22:52:58.211Z,3.17
2018-07-08T22:55:26.740Z,2.70
2018-07-08T22:57:55.255Z,3.37
2018-07-08T23:00:29.131Z,3.47
2018-07-08T23:04:09.807Z,3.17
2018-07-08T23:06:38.170Z,3.20
2018-07-08T23:09:06.890Z,3.10
2018-07-08T23:11:35.997Z,2.90
2018-07-08T23:14:04.240Z,3.23
2018-07-08T23:16:32.825Z,3.00
2018-07-08T23:19:01.122Z,3.50
2018-07-08T23:21:29.511Z,3.27
2018-07-08T23:23:57.985Z,3.20
2018-07-08T23:26:26.933Z,3.60
2018-07-08T23:28:55.238Z,3.23
2018-07-08T23:31:23.660Z,3.13
2018-07-08T23:33:52.136Z,3.07
2018-07-08T23:36:20.542Z,3.53
2018-07-08T23:38:48.950Z,3.07
2018-07-08T23:41:18.081Z,2.90
2018-07-08T23:43:46.450Z,3.17
2018-07-08T23:46:15.209Z,3.40
2018-07-08T23:48:43.724Z,3.37
2018-07-08T23:51:11.962Z,3.10
2018-07-08T23:53:40.342Z,3.37
2018-07-08T23:56:08.569Z,3.13
2018-07-08T23:58:36.767Z,2.77
